Time;durP1;ratioP1;P1;durP2;ratioP2;P2;SDS_P1;SDS_P2;PMS_P1;PMS_P2;Temp;Humidity;BMP_temperature;BMP_pressure;BME280_temperature;BME280_humidity;BME280_pressure;Samples;Min_cycle;Max_cycle;Signal;HPM_P1;HPM_P2
2021/09/30 00:00:26;;;;;;;6.50;1.00;;;;;;;10.88;100.00;96871.47;1024135;29;20413;-63
2021/09/30 00:00:56;;;;;;;3.90;1.20;;;;;;;10.88;100.00;96871.47;1024191;28;20039;-63
2021/09/30 00:01:27;;;;;;;4.37;1.30;;;;;;;10.91;100.00;96869.13;1024272;28;20547;-63
2021/09/30 00:01:57;;;;;;;3.47;1.30;;;;;;;10.93;100.00;96866.97;1024025;29;20023;-63
2021/09/30 00:02:27;;;;;;;2.73;1.10;;;;;;;10.94;100.00;96868.59;1025966;28;20070;-63
2021/09/30 00:02:58;;;;;;;3.23;0.93;;;;;;;10.90;100.00;96869.34;1027977;28;20082;-63
2021/09/30 00:03:30;;;;;;;3.27;1.10;;;;;;;10.89;100.00;96878.44;1032163;28;20041;-63
2021/09/30 00:04:00;;;;;;;3.17;1.08;;;;;;;10.90;100.00;96877.38;1032339;28;20025;-63
2021/09/30 00:04:30;;;;;;;3.10;1.20;;;;;;;10.92;100.00;96881.41;1032057;28;20383;-63
2021/09/30 00:05:01;;;;;;;2.47;0.90;;;;;;;10.92;100.00;96872.59;1032081;28;20017;-63
2021/09/30 00:05:31;;;;;;;2.50;1.00;;;;;;;10.91;100.00;96876.31;1028136;28;20030;-64
2021/09/30 00:06:02;;;;;;;3.23;1.23;;;;;;;10.94;100.00;96881.16;1016183;29;20049;-63
2021/09/30 00:06:32;;;;;;;2.80;1.00;;;;;;;10.98;100.00;96876.13;1020151;29;20511;-63
2021/09/30 00:07:07;;;;;;;2.73;1.10;;;;;;;10.95;100.00;96877.41;1020094;29;20047;-63
2021/09/30 00:07:37;;;;;;;2.58;1.00;;;;;;;10.94;100.00;96873.94;1025161;28;20030;-63
2021/09/30 00:08:08;;;;;;;4.67;1.30;;;;;;;10.99;100.00;96880.41;1032082;28;20471;-62
2021/09/30 00:08:39;;;;;;;2.40;1.00;;;;;;;10.90;100.00;96874.69;1032074;28;20065;-63
2021/09/30 00:09:10;;;;;;;2.93;1.00;;;;;;;10.93;100.00;96879.56;1032440;28;20026;-63
2021/09/30 00:09:44;;;;;;;4.13;1.10;;;;;;;10.87;100.00;96876.00;1032269;28;20014;-63
2021/09/30 00:10:18;;;;;;;5.45;1.38;;;;;;;10.86;100.00;96882.44;1031986;28;20077;-63
2021/09/30 00:11:12;;;;;;;3.58;1.30;;;;;;;10.86;100.00;96874.41;1032061;28;20368;-63
2021/09/30 00:11:43;;;;;;;;;;;;;;;10.82;100.00;96883.97;1032211;28;20034;-63
2021/09/30 00:12:19;;;;;;;3.25;1.05;;;;;;;10.80;100.00;96886.09;1035875;28;19909;-63
2021/09/30 00:13:35;;;;;;;5.30;1.10;;;;;;;10.79;100.00;96889.00;1023982;29;20054;-63
2021/09/30 00:13:55;;;;;;;6.18;1.48;;;;;;;10.71;100.00;96879.56;1024896;28;20047;-63
2021/09/30 00:16:21;;;;;;;4.25;1.27;;;;;;;10.72;100.00;96883.03;1026768;28;20027;-62
2021/09/30 00:34:56;;;;;;;4.47;1.00;;;;;;;10.59;100.00;96890.34;1031994;28;20027;-64
2021/09/30 00:35:38;;;;;;;4.80;1.00;;;;;;;10.64;100.00;96903.00;1032016;28;20023;-64
2021/09/30 00:46:03;;;;;;;3.03;0.85;;;;;;;10.48;100.00;96887.81;1032268;28;20458;-64
2021/09/30 00:46:54;;;;;;;6.43;1.10;;;;;;;10.53;100.00;96901.25;1027406;28;20022;-64
2021/09/30 00:48:38;;;;;;;4.38;1.48;;;;;;;10.56;100.00;96893.56;1021550;29;20333;-64
2021/09/30 00:49:18;;;;;;;2.75;1.00;;;;;;;10.54;100.00;96895.63;1023817;29;20048;-65
2021/09/30 00:50:10;;;;;;;6.85;1.30;;;;;;;10.55;100.00;96893.81;1022391;29;20188;-64
2021/09/30 00:54:42;;;;;;;6.85;1.35;;;;;;;10.43;100.00;96891.22;1028218;28;20038;-64
2021/09/30 01:23:50;;;;;;;3.00;1.05;;;;;;;10.07;100.00;96909.38;1015835;29;20241;-64
2021/09/30 01:33:32;;;;;;;5.53;1.50;;;;;;;9.97;100.00;96917.22;1021724;28;20020;-63
2021/09/30 01:46:24;;;;;;;2.47;0.95;;;;;;;9.90;100.00;96919.28;1026519;28;20138;-63
2021/09/30 01:52:04;;;;;;;3.97;1.10;;;;;;;9.93;100.00;96917.97;1023588;29;20043;-63
2021/09/30 01:57:39;;;;;;;3.63;1.05;;;;;;;9.92;100.00;96927.84;1029615;28;20493;-63
2021/09/30 02:18:16;;;;;;;2.90;1.13;;;;;;;9.97;100.00;96930.59;1031817;28;20034;-64
2021/09/30 02:19:37;;;;;;;5.25;1.40;;;;;;;10.07;100.00;96940.63;1027938;28;20069;-63
2021/09/30 02:22:34;;;;;;;4.55;1.15;;;;;;;10.06;100.00;96952.38;1020508;29;20027;-64
2021/09/30 02:25:49;;;;;;;3.85;1.35;;;;;;;10.03;100.00;96956.34;1028234;28;20042;-64
2021/09/30 02:28:54;;;;;;;3.47;1.13;;;;;;;9.93;100.00;96944.66;1028262;28;20098;-63
2021/09/30 02:30:23;;;;;;;4.73;1.00;;;;;;;9.91;100.00;96950.25;1024234;29;20027;-64
2021/09/30 02:39:22;;;;;;;3.00;0.93;;;;;;;9.85;100.00;96948.56;1024400;29;20023;-63
2021/09/30 02:58:32;;;;;;;4.68;1.10;;;;;;;9.64;100.00;96960.75;1023842;29;19949;-63
2021/09/30 02:59:07;;;;;;;3.83;1.10;;;;;;;9.61;100.00;96961.22;1024989;28;20389;-63
2021/09/30 02:59:38;;;;;;;4.95;1.27;;;;;;;9.62;100.00;96957.50;1023889;29;20015;-63
2021/09/30 03:00:09;;;;;;;5.03;1.47;;;;;;;9.61;100.00;96963.88;1024356;29;20023;-64
2021/09/30 03:00:41;;;;;;;4.80;1.27;;;;;;;9.61;100.00;96963.88;1020332;29;20024;-63
2021/09/30 03:01:17;;;;;;;6.85;1.40;;;;;;;9.56;100.00;96961.94;1020241;28;20020;-64
2021/09/30 03:01:47;;;;;;;5.78;1.48;;;;;;;9.60;100.00;96968.41;1016391;29;20036;-63
2021/09/30 03:02:18;;;;;;;7.10;1.30;;;;;;;9.61;100.00;96958.53;1017453;29;20024;-63
2021/09/30 03:02:50;;;;;;;4.87;1.30;;;;;;;9.64;100.00;96963.41;1020245;29;20012;-64
2021/09/30 03:03:21;;;;;;;7.22;1.40;;;;;;;9.58;100.00;96959.03;1016213;29;20024;-63
2021/09/30 03:03:52;;;;;;;4.35;1.42;;;;;;;9.56;100.00;96961.94;1012951;29;20020;-63
2021/09/30 03:04:22;;;;;;;5.77;1.47;;;;;;;9.59;100.00;96958.78;1013392;29;20020;-64
2021/09/30 03:04:53;;;;;;;3.47;1.17;;;;;;;9.64;100.00;96963.41;1020407;29;20023;-63
2021/09/30 03:05:24;;;;;;;7.57;1.33;;;;;;;9.61;100.00;96954.00;1028095;28;20029;-63
2021/09/30 03:05:55;;;;;;;2.97;1.20;;;;;;;9.60;100.00;96968.41;1028309;28;20031;-63
2021/09/30 03:06:26;;;;;;;3.67;1.10;;;;;;;9.61;100.00;96961.22;1028273;28;20019;-64
2021/09/30 03:06:57;;;;;;;6.57;1.02;;;;;;;9.65;100.00;96967.69;1024162;28;20110;-64
2021/09/30 03:07:27;;;;;;;5.28;1.27;;;;;;;9.66;100.00;96960.50;1024554;28;20023;-64
2021/09/30 03:07:58;;;;;;;4.47;1.03;;;;;;;9.72;100.00;96960.34;1020312;29;20043;-64
2021/09/30 03:08:29;;;;;;;5.00;1.40;;;;;;;9.75;100.00;96967.88;1016393;29;20080;-64
2021/09/30 03:09:00;;;;;;;4.10;1.20;;;;;;;9.78;100.00;96963.94;1008650;29;20032;-64
2021/09/30 03:09:42;;;;;;;3.38;1.30;;;;;;;9.75;100.00;96967.06;1008845;29;20021;-64
2021/09/30 03:10:12;;;;;;;3.20;1.20;;;;;;;9.80;100.00;96959.97;1018126;29;20055;-65
2021/09/30 03:10:44;;;;;;;6.83;1.90;;;;;;;9.83;100.00;96964.81;1016334;29;20028;-64
2021/09/30 03:11:15;;;;;;;6.22;1.80;;;;;;;9.81;100.00;96963.44;1016261;29;20028;-64
2021/09/30 03:11:50;;;;;;;4.97;1.23;;;;;;;9.77;100.00;96960.44;1023870;29;20038;-64
2021/09/30 03:12:23;;;;;;;6.13;1.30;;;;;;;9.80;100.00;96961.81;1020477;29;20048;-64
2021/09/30 03:12:54;;;;;;;8.68;1.80;;;;;;;9.82;100.00;96965.03;1016421;29;20020;-64
2021/09/30 03:13:26;;;;;;;8.77;1.50;;;;;;;9.85;100.00;96970.72;1012346;29;20032;-63
2021/09/30 03:13:57;;;;;;;4.90;1.35;;;;;;;9.86;100.00;96968.84;1016272;29;20032;-63
2021/09/30 03:14:27;;;;;;;5.53;1.60;;;;;;;9.85;100.00;96964.56;1016349;29;20025;-64
2021/09/30 03:15:16;;;;;;;7.43;1.40;;;;;;;9.85;100.00;96969.91;1016424;29;20469;-63
2021/09/30 03:15:54;;;;;;;6.05;1.35;;;;;;;9.83;100.00;96962.16;1014944;29;20027;-63
2021/09/30 03:16:30;;;;;;;4.05;1.20;;;;;;;9.82;100.00;96968.53;1015874;29;20493;-63
2021/09/30 03:17:03;;;;;;;5.28;1.40;;;;;;;9.81;100.00;96963.44;1020342;29;20037;-63
2021/09/30 03:17:49;;;;;;;4.10;1.20;;;;;;;9.80;100.00;96961.81;1020190;29;20103;-63
2021/09/30 03:20:16;;;;;;;4.30;1.40;;;;;;;9.84;100.00;96970.97;1028014;28;20146;-63
2021/09/30 03:20:54;;;;;;;6.05;1.90;;;;;;;9.70;100.00;96965.13;1022511;29;20023;-63
2021/09/30 03:22:13;;;;;;;4.82;1.20;;;;;;;9.66;100.00;96966.66;1016159;29;20389;-63
2021/09/30 03:22:24;;;;;;;3.83;1.15;;;;;;;9.72;100.00;96965.69;1018876;29;20036;-63
2021/09/30 03:23:08;;;;;;;6.03;1.50;;;;;;;9.69;100.00;96965.38;1017789;29;20127;-62
2021/09/30 03:23:38;;;;;;;5.47;1.42;;;;;;;9.71;100.00;96968.59;1027151;28;20067;-63
2021/09/30 03:24:12;;;;;;;5.63;1.10;;;;;;;9.78;100.00;96970.06;1023957;29;20125;-63
2021/09/30 03:24:48;;;;;;;5.28;1.27;;;;;;;9.78;100.00;96966.59;1022154;29;20035;-63
2021/09/30 03:25:18;;;;;;;8.10;1.40;;;;;;;9.77;100.00;96967.63;1020245;29;20027;-63
2021/09/30 03:25:49;;;;;;;3.83;1.00;;;;;;;9.77;100.00;96971.09;1022776;28;20042;-62
2021/09/30 03:26:19;;;;;;;4.43;1.10;;;;;;;9.75;100.00;96967.88;1024950;28;20034;-63
2021/09/30 03:26:50;;;;;;;3.90;1.20;;;;;;;9.73;100.00;96967.31;1024819;28;20579;-63
2021/09/30 03:27:20;;;;;;;7.03;1.40;;;;;;;9.67;100.00;96962.91;1020295;29;20038;-63
2021/09/30 03:27:51;;;;;;;5.10;1.10;;;;;;;9.72;100.00;96972.88;1020337;29;20473;-63
2021/09/30 03:28:22;;;;;;;5.38;1.77;;;;;;;9.66;100.00;96969.31;1019345;29;20028;-64
2021/09/30 03:28:53;;;;;;;4.03;1.27;;;;;;;9.67;100.00;96973.59;1016718;29;20043;-63
2021/09/30 03:29:23;;;;;;;5.03;1.57;;;;;;;9.70;100.00;96972.31;1020311;29;20047;-63
2021/09/30 03:29:53;;;;;;;6.10;1.43;;;;;;;9.71;100.00;96966.72;1016482;29;20110;-63
2021/09/30 03:30:24;;;;;;;5.07;1.47;;;;;;;9.70;100.00;96969.66;1025945;28;20039;-63
2021/09/30 03:30:55;;;;;;;3.72;1.17;;;;;;;9.69;100.00;96974.19;1028255;28;20077;-63
2021/09/30 03:31:26;;;;;;;3.72;1.20;;;;;;;9.72;100.00;96970.22;1032199;28;20178;-63
2021/09/30 03:31:57;;;;;;;4.83;1.17;;;;;;;9.65;100.00;96970.38;1028046;28;20065;-63
2021/09/30 03:32:27;;;;;;;2.95;0.93;;;;;;;9.66;100.00;96963.97;1019969;29;20118;-62
2021/09/30 03:33:07;;;;;;;2.47;1.20;;;;;;;9.68;100.00;96972.56;1020183;29;20024;-63
2021/09/30 03:33:37;;;;;;;9.68;1.17;;;;;;;9.66;100.00;96965.84;1020142;29;20405;-63
2021/09/30 03:34:08;;;;;;;6.03;1.07;;;;;;;9.67;100.00;96962.91;1020030;29;20028;-63
2021/09/30 03:34:38;;;;;;;3.23;1.00;;;;;;;9.68;100.00;96969.09;1016176;29;20036;-64
2021/09/30 03:35:09;;;;;;;4.33;1.10;;;;;;;9.71;100.00;96966.72;1016340;29;20060;-64
2021/09/30 03:35:39;;;;;;;6.80;1.40;;;;;;;9.69;100.00;96970.72;1020315;29;20114;-64
2021/09/30 03:36:10;;;;;;;3.53;1.27;;;;;;;9.62;100.00;96969.00;1024291;28;20023;-63
2021/09/30 03:36:40;;;;;;;4.07;1.00;;;;;;;9.63;100.00;96967.13;1028175;28;20023;-63
2021/09/30 03:37:10;;;;;;;7.70;1.50;;;;;;;9.58;100.00;96962.53;1028273;28;20460;-63
2021/09/30 03:37:41;;;;;;;4.40;1.10;;;;;;;9.58;100.00;96962.53;1032195;28;20042;-63
2021/09/30 03:38:11;;;;;;;5.47;1.33;;;;;;;9.57;100.00;96965.41;1025743;28;20018;-63
2021/09/30 03:38:42;;;;;;;4.27;1.20;;;;;;;9.56;100.00;96963.78;1024222;29;20460;-64
2021/09/30 03:39:22;;;;;;;4.40;1.10;;;;;;;9.62;100.00;96973.50;1024152;29;20109;-64
2021/09/30 03:39:53;;;;;;;4.22;1.10;;;;;;;9.60;100.00;96970.28;1024099;29;20433;-64
2021/09/30 03:40:23;;;;;;;5.20;1.20;;;;;;;9.61;100.00;96971.88;1025489;28;20031;-64
2021/09/30 03:40:54;;;;;;;4.63;1.10;;;;;;;9.60;100.00;96965.75;1028271;28;20109;-65
2021/09/30 03:41:24;;;;;;;3.10;1.00;;;;;;;9.63;100.00;96970.63;1028472;28;20420;-64
2021/09/30 03:41:54;;;;;;;3.23;1.17;;;;;;;9.59;100.00;96972.13;1028507;28;20388;-63
2021/09/30 03:42:25;;;;;;;7.77;1.97;;;;;;;9.54;100.00;96968.56;1028381;28;20491;-63
2021/09/30 03:42:55;;;;;;;12.93;2.30;;;;;;;9.50;100.00;96967.41;1028325;28;20019;-63
2021/09/30 03:43:26;;;;;;;9.00;1.67;;;;;;;9.49;100.00;96971.16;1028011;28;20074;-63
2021/09/30 03:43:57;;;;;;;7.97;1.33;;;;;;;9.52;100.00;96973.31;1028112;28;20032;-63
2021/09/30 03:44:27;;;;;;;5.17;1.20;;;;;;;9.52;100.00;96968.81;1027554;28;20039;-63
2021/09/30 03:44:58;;;;;;;4.33;0.80;;;;;;;9.51;100.00;96971.72;1027703;28;20027;-63
2021/09/30 03:45:28;;;;;;;4.57;1.10;;;;;;;9.52;100.00;96967.97;1028428;28;20023;-63
2021/09/30 03:45:59;;;;;;;4.40;1.13;;;;;;;9.59;100.00;96972.13;1028424;28;20369;-63
2021/09/30 03:46:32;;;;;;;3.33;1.00;;;;;;;9.56;100.00;96974.47;1028306;28;20494;-63
2021/09/30 03:47:02;;;;;;;4.95;1.48;;;;;;;9.63;100.00;96967.13;1027978;28;20062;-63
2021/09/30 03:47:32;;;;;;;6.23;1.20;;;;;;;9.64;100.00;96968.75;1028127;28;20018;-63
2021/09/30 03:48:03;;;;;;;8.80;1.60;;;;;;;9.64;100.00;96966.09;1028022;28;20137;-74
2021/09/30 03:48:34;;;;;;;4.68;1.45;;;;;;;9.70;100.00;96973.13;1017161;29;20020;-69
2021/09/30 03:49:11;;;;;;;5.67;1.23;;;;;;;9.71;100.00;96972.06;1020106;29;20023;-65
2021/09/30 03:49:43;;;;;;;4.57;1.27;;;;;;;9.68;100.00;96972.56;1016288;29;20028;-65
2021/09/30 03:50:17;;;;;;;4.18;1.25;;;;;;;9.70;100.00;96977.66;1017196;29;20013;-66
2021/09/30 03:51:03;;;;;;;4.90;1.30;;;;;;;9.72;100.00;96975.53;1023153;28;20019;-66
2021/09/30 03:52:24;;;;;;;4.40;1.40;;;;;;;9.70;100.00;96973.13;1031868;28;20491;-66
2021/09/30 03:54:51;;;;;;;4.43;1.07;;;;;;;9.63;100.00;96981.28;1032085;28;20011;-66
2021/09/30 03:56:35;;;;;;;5.38;1.10;;;;;;;9.63;100.00;96975.16;1031864;28;20031;-66
2021/09/30 03:57:21;;;;;;;;;;;;;;;9.60;100.00;96980.94;1035583;28;20440;-65
2021/09/30 03:59:26;;;;;;;6.97;1.23;;;;;;;9.55;100.00;96979.00;1023239;29;20480;-66
2021/09/30 03:59:57;;;;;;;5.70;1.10;;;;;;;9.52;100.00;96974.16;1024158;29;20027;-66
2021/09/30 04:00:27;;;;;;;4.93;1.13;;;;;;;9.50;100.00;96980.75;1024065;29;20015;-66
2021/09/30 04:00:57;;;;;;;3.47;1.27;;;;;;;9.47;100.00;96979.41;1022621;28;20024;-66
2021/09/30 04:01:28;;;;;;;6.10;1.27;;;;;;;9.51;100.00;96985.03;1028012;28;20023;-66
2021/09/30 04:02:00;;;;;;;2.77;1.00;;;;;;;9.56;100.00;96987.81;1024005;29;20086;-66
2021/09/30 04:02:31;;;;;;;4.35;1.27;;;;;;;9.59;100.00;96985.47;1020314;29;20026;-66
2021/09/30 04:03:01;;;;;;;8.40;1.27;;;;;;;9.61;100.00;96985.22;1024162;29;20046;-66
2021/09/30 04:03:31;;;;;;;6.47;1.60;;;;;;;9.60;100.00;96980.94;1016340;29;20484;-66
2021/09/30 04:04:02;;;;;;;9.20;1.23;;;;;;;9.56;100.00;96988.63;1020146;29;20031;-66
2021/09/30 04:04:33;;;;;;;4.53;1.23;;;;;;;9.54;100.00;96979.25;1024066;29;20532;-66
2021/09/30 04:05:04;;;;;;;5.93;1.13;;;;;;;9.55;100.00;96975.53;1024234;28;20106;-66
2021/09/30 04:05:34;;;;;;;4.00;1.20;;;;;;;9.59;100.00;96980.16;1024340;28;20081;-65
2021/09/30 04:06:05;;;;;;;6.00;1.20;;;;;;;9.60;100.00;96979.09;1028090;28;20026;-65
2021/09/30 04:06:35;;;;;;;5.40;1.37;;;;;;;9.59;100.00;96982.00;1028043;28;20113;-66
2021/09/30 04:07:07;;;;;;;5.80;1.10;;;;;;;9.58;100.00;96986.53;1028155;28;20030;-66
2021/09/30 04:07:37;;;;;;;6.43;1.38;;;;;;;9.56;100.00;96985.13;1027989;28;20113;-65
2021/09/30 04:08:08;;;;;;;3.20;1.00;;;;;;;9.59;100.00;96985.47;1028046;28;20468;-65
2021/09/30 04:08:39;;;;;;;6.73;1.53;;;;;;;9.54;100.00;96989.91;1023931;29;20043;-65
2021/09/30 04:09:09;;;;;;;5.83;1.10;;;;;;;9.55;100.00;96986.19;1024284;28;20138;-65
2021/09/30 04:09:40;;;;;;;6.87;1.10;;;;;;;9.59;100.00;96985.47;1019964;29;20276;-64
2021/09/30 04:10:10;;;;;;;5.13;1.53;;;;;;;9.59;100.00;96987.34;1020201;29;20544;-65
2021/09/30 04:10:40;;;;;;;4.17;1.17;;;;;;;9.57;100.00;96986.75;1024111;28;20117;-66
2021/09/30 04:11:11;;;;;;;3.30;0.90;;;;;;;9.61;100.00;96987.91;1028006;28;20018;-66
2021/09/30 04:11:41;;;;;;;6.77;1.37;;;;;;;9.58;100.00;96985.72;1028010;28;20023;-66
2021/09/30 04:12:12;;;;;;;6.63;1.27;;;;;;;9.55;100.00;96987.00;1023944;28;20055;-66
2021/09/30 04:12:42;;;;;;;4.00;1.10;;;;;;;9.56;100.00;96985.13;1020027;29;20039;-66
2021/09/30 04:13:13;;;;;;;5.97;1.27;;;;;;;9.59;100.00;96988.16;1016145;29;20615;-66
2021/09/30 04:13:43;;;;;;;4.53;1.00;;;;;;;9.62;100.00;96984.19;1016178;29;20040;-66
2021/09/30 04:14:14;;;;;;;3.67;1.00;;;;;;;9.67;100.00;96992.28;1020025;29;20417;-66
2021/09/30 04:14:44;;;;;;;2.50;1.00;;;;;;;9.64;100.00;96990.09;1012229;29;20048;-66
2021/09/30 04:15:14;;;;;;;5.63;1.33;;;;;;;9.62;100.00;96995.69;1020144;29;20023;-66
2021/09/30 04:15:49;;;;;;;8.00;1.10;;;;;;;9.63;100.00;96989.31;1023923;29;20047;-66
2021/09/30 04:16:20;;;;;;;5.85;1.20;;;;;;;9.59;100.00;97000.69;1021191;28;20027;-66
2021/09/30 04:16:50;;;;;;;5.30;0.90;;;;;;;9.51;100.00;96990.38;1027980;28;20027;-66
2021/09/30 04:17:21;;;;;;;4.40;1.10;;;;;;;9.51;100.00;96995.72;1023949;28;20027;-66
2021/09/30 04:17:51;;;;;;;7.00;1.13;;;;;;;9.57;100.00;96994.75;1019967;29;20397;-66
2021/09/30 04:18:22;;;;;;;5.03;1.37;;;;;;;9.61;100.00;96990.56;1024528;28;20372;-67
2021/09/30 04:18:52;;;;;;;4.70;1.23;;;;;;;9.62;100.00;96987.69;1028039;28;20526;-65
2021/09/30 04:19:23;;;;;;;3.47;1.40;;;;;;;9.61;100.00;96993.25;1034400;28;20025;-65
2021/09/30 04:19:53;;;;;;;4.13;1.30;;;;;;;9.58;100.00;96986.53;1032262;28;20372;-65
2021/09/30 04:20:23;;;;;;;4.83;1.10;;;;;;;9.53;100.00;96990.97;1029840;28;20018;-66
2021/09/30 04:20:54;;;;;;;6.90;1.50;;;;;;;9.56;100.00;96991.28;1030132;28;20037;-65
2021/09/30 04:21:24;;;;;;;3.70;1.03;;;;;;;9.61;100.00;96988.72;1031333;28;20033;-64
2021/09/30 04:21:55;;;;;;;7.07;1.30;;;;;;;9.59;100.00;96995.34;1031912;28;20119;-66
2021/09/30 04:22:25;;;;;;;8.57;1.50;;;;;;;9.58;100.00;96993.75;1027616;28;20025;-65
2021/09/30 04:22:56;;;;;;;5.20;1.10;;;;;;;9.57;100.00;96992.94;1023667;29;20031;-65
2021/09/30 04:23:26;;;;;;;4.50;1.57;;;;;;;9.52;100.00;96987.50;1019817;29;20020;-65
2021/09/30 04:23:57;;;;;;;9.00;1.20;;;;;;;9.59;100.00;96985.47;1023467;28;20023;-64
2021/09/30 04:24:27;;;;;;;4.70;1.20;;;;;;;9.56;100.00;96993.94;1022378;29;20015;-65
2021/09/30 04:24:58;;;;;;;5.30;1.23;;;;;;;9.60;100.00;96999.63;1021820;28;20058;-65
2021/09/30 04:25:29;;;;;;;6.27;1.40;;;;;;;9.63;100.00;96999.16;1025081;28;20024;-65
2021/09/30 04:25:59;;;;;;;7.30;1.30;;;;;;;9.55;100.00;96995.00;1025933;28;20102;-65
2021/09/30 04:26:30;;;;;;;2.83;0.97;;;;;;;9.49;100.00;97000.50;1027803;28;20019;-65
2021/09/30 04:27:00;;;;;;;5.53;1.20;;;;;;;9.54;100.00;96995.25;1027934;28;20460;-65
2021/09/30 04:27:30;;;;;;;6.37;1.47;;;;;;;9.54;100.00;96995.25;1031756;28;20565;-65
2021/09/30 04:28:01;;;;;;;3.40;1.10;;;;;;;9.44;100.00;96990.53;1031932;28;20076;-65
2021/09/30 04:28:31;;;;;;;4.53;1.23;;;;;;;9.50;100.00;96996.78;1031449;28;20022;-65
2021/09/30 04:29:02;;;;;;;4.37;1.17;;;;;;;9.45;100.00;96997.47;1032122;28;20030;-65
2021/09/30 04:29:33;;;;;;;3.80;1.00;;;;;;;9.41;100.00;96998.19;1031923;28;20069;-65
2021/09/30 04:30:04;;;;;;;3.67;1.07;;;;;;;9.40;100.00;96999.25;1031882;28;20058;-65
2021/09/30 04:30:34;;;;;;;4.15;1.08;;;;;;;9.41;100.00;96996.34;1027734;28;20023;-65
2021/09/30 04:31:05;;;;;;;2.83;0.93;;;;;;;9.40;100.00;97002.72;1027823;28;20509;-65
2021/09/30 04:31:35;;;;;;;3.43;1.00;;;;;;;9.42;100.00;96999.81;1028054;28;20019;-65
2021/09/30 04:32:06;;;;;;;6.90;1.20;;;;;;;9.46;100.00;96998.28;1031888;28;20031;-65
2021/09/30 04:32:36;;;;;;;5.93;1.63;;;;;;;9.41;100.00;97000.88;1027705;28;20015;-65
2021/09/30 04:33:07;;;;;;;3.50;1.33;;;;;;;9.43;100.00;97004.13;1027731;28;20030;-65
2021/09/30 04:33:37;;;;;;;5.13;1.40;;;;;;;9.42;100.00;97008.66;1027769;28;20015;-65
2021/09/30 04:34:08;;;;;;;5.40;1.30;;;;;;;9.42;100.00;97005.97;1027716;28;20118;-64
2021/09/30 04:34:38;;;;;;;3.13;1.13;;;;;;;9.44;100.00;97008.41;1023719;29;20027;-64
2021/09/30 04:35:09;;;;;;;4.77;1.30;;;;;;;9.42;100.00;97002.47;1015785;29;20020;-64
2021/09/30 04:35:39;;;;;;;5.97;1.40;;;;;;;9.42;100.00;97013.16;1012202;29;20027;-65
2021/09/30 04:36:10;;;;;;;4.30;1.40;;;;;;;9.46;100.00;97009.78;1015898;29;20020;-65
2021/09/30 04:36:40;;;;;;;4.70;1.30;;;;;;;9.45;100.00;97008.16;1016006;29;20088;-65
2021/09/30 04:37:13;;;;;;;4.67;1.30;;;;;;;9.41;100.00;97007.00;1016253;29;20068;-66
2021/09/30 04:37:43;;;;;;;3.85;1.27;;;;;;;9.37;100.00;97004.03;1020284;29;20099;-65
2021/09/30 04:38:14;;;;;;;7.43;1.50;;;;;;;9.36;100.00;97005.03;1017564;29;20036;-64
2021/09/30 04:38:45;;;;;;;3.10;1.13;;;;;;;9.40;100.00;97008.06;1026210;28;20035;-66
2021/09/30 04:39:16;;;;;;;3.10;1.45;;;;;;;9.38;100.00;97010.97;1031729;28;20019;-65
2021/09/30 04:39:46;;;;;;;5.07;1.20;;;;;;;9.41;100.00;97006.19;1032154;28;20018;-65
2021/09/30 04:40:16;;;;;;;5.07;1.40;;;;;;;9.33;100.00;97002.88;1032092;28;20030;-65
2021/09/30 04:40:47;;;;;;;5.47;1.27;;;;;;;9.36;100.00;97007.72;1032215;28;20026;-65
2021/09/30 04:41:18;;;;;;;6.30;1.30;;;;;;;9.38;100.00;97013.66;1032011;28;20018;-65
2021/09/30 04:41:49;;;;;;;5.93;1.58;;;;;;;9.37;100.00;97000.56;1032235;28;20026;-65
2021/09/30 04:42:19;;;;;;;5.43;1.27;;;;;;;9.42;100.00;97007.81;1032079;28;20030;-65
2021/09/30 04:42:50;;;;;;;4.00;1.30;;;;;;;9.43;100.00;97006.78;1032084;28;20026;-65
2021/09/30 04:43:20;;;;;;;5.17;1.27;;;;;;;9.42;100.00;97008.66;1032107;28;20022;-65
2021/09/30 04:43:51;;;;;;;13.67;1.47;;;;;;;9.40;100.00;97013.41;1031816;28;20573;-67
2021/09/30 04:44:22;;;;;;;8.20;1.77;;;;;;;9.43;100.00;97012.13;1032073;28;20497;-65
2021/09/30 04:44:53;;;;;;;6.03;1.50;;;;;;;9.45;100.00;97012.69;1031794;28;20030;-66
2021/09/30 04:45:23;;;;;;;9.47;1.57;;;;;;;9.40;100.00;97010.72;1019785;29;20576;-65
2021/09/30 04:45:53;;;;;;;5.97;1.60;;;;;;;9.44;100.00;97011.88;1019947;29;20087;-65
2021/09/30 04:46:24;;;;;;;6.83;1.60;;;;;;;9.41;100.00;97009.69;1019626;29;20035;-65
2021/09/30 04:46:54;;;;;;;5.57;1.20;;;;;;;9.45;100.00;97015.34;1019005;29;20169;-64
2021/09/30 04:47:25;;;;;;;4.87;1.60;;;;;;;9.49;100.00;97019.19;1019813;29;20035;-65
2021/09/30 04:47:55;;;;;;;5.10;1.20;;;;;;;9.45;100.00;97018.03;1020014;29;20055;-65
2021/09/30 04:48:25;;;;;;;7.60;1.27;;;;;;;9.46;100.00;97020.44;1023905;28;20080;-65
2021/09/30 04:48:56;;;;;;;2.80;1.00;;;;;;;9.41;100.00;97015.00;1031725;28;20019;-65
2021/09/30 04:49:26;;;;;;;5.97;1.67;;;;;;;9.45;100.00;97021.50;1027595;28;20049;-64
2021/09/30 04:49:57;;;;;;;6.20;1.63;;;;;;;9.38;100.00;97015.50;1027839;28;20026;-65
2021/09/30 04:50:27;;;;;;;3.27;1.20;;;;;;;9.37;100.00;97013.88;1023720;28;20054;-65
2021/09/30 04:50:58;;;;;;;5.13;1.30;;;;;;;9.38;100.00;97013.66;1027844;28;20027;-65
2021/09/30 04:51:28;;;;;;;2.90;1.30;;;;;;;9.38;100.00;97018.97;1027661;28;20019;-65
2021/09/30 04:51:59;;;;;;;3.92;1.30;;;;;;;9.40;100.00;97021.41;1027888;28;20027;-66
2021/09/30 04:52:29;;;;;;;4.20;1.40;;;;;;;9.43;100.00;97017.47;1031739;28;20030;-65
2021/09/30 04:53:01;;;;;;;4.27;1.33;;;;;;;9.42;100.00;97013.16;1031877;28;20019;-65
2021/09/30 04:53:32;;;;;;;5.22;1.50;;;;;;;9.44;100.00;97014.56;1031940;28;20080;-64
2021/09/30 04:54:02;;;;;;;4.50;1.03;;;;;;;9.46;100.00;97019.63;1032151;28;20104;-64
2021/09/30 04:54:33;;;;;;;4.93;1.60;;;;;;;9.47;100.00;97022.09;1027729;28;20030;-64
2021/09/30 04:55:04;;;;;;;6.80;1.33;;;;;;;9.48;100.00;97023.72;1027690;28;20030;-65
2021/09/30 04:55:34;;;;;;;4.10;1.00;;;;;;;9.47;100.00;97021.25;1027612;28;20023;-65
2021/09/30 04:56:05;;;;;;;6.60;1.63;;;;;;;9.49;100.00;97019.19;1027824;28;20019;-65
2021/09/30 04:56:35;;;;;;;2.57;1.07;;;;;;;9.50;100.00;97028.78;1031683;28;20092;-65
2021/09/30 04:57:06;;;;;;;5.90;1.60;;;;;;;9.40;100.00;97020.59;1031940;28;20058;-65
2021/09/30 04:57:36;;;;;;;4.10;1.30;;;;;;;9.40;100.00;97015.25;1031949;28;20139;-66
2021/09/30 04:58:07;;;;;;;4.27;1.20;;;;;;;9.43;100.00;97022.81;1035751;28;20017;-65
2021/09/30 04:58:38;;;;;;;4.00;1.30;;;;;;;9.43;100.00;97020.94;1035791;28;20419;-65
2021/09/30 04:59:08;;;;;;;6.35;1.40;;;;;;;9.44;100.00;97019.88;1027709;28;20030;-66
2021/09/30 04:59:39;;;;;;;6.13;1.20;;;;;;;9.40;100.00;97021.41;1023770;29;20047;-66
2021/09/30 05:00:10;;;;;;;6.20;1.40;;;;;;;9.37;100.00;97014.69;1024157;28;20075;-66
2021/09/30 05:00:40;;;;;;;8.55;1.83;;;;;;;9.40;100.00;97018.72;1023916;28;20031;-66
2021/09/30 05:01:11;;;;;;;7.37;1.33;;;;;;;9.42;100.00;97018.47;1031523;28;20018;-66
2021/09/30 05:01:41;;;;;;;7.57;1.40;;;;;;;9.41;100.00;97009.69;1027736;28;20038;-66
2021/09/30 05:02:11;;;;;;;4.30;1.27;;;;;;;9.35;100.00;97014.09;1031675;28;20037;-65
2021/09/30 05:02:46;;;;;;;4.87;1.30;;;;;;;9.32;100.00;97024.47;1027842;28;20115;-66
2021/09/30 05:03:16;;;;;;;8.82;1.50;;;;;;;9.27;100.00;97022.50;1027719;28;20471;-66
2021/09/30 05:03:47;;;;;;;5.23;1.17;;;;;;;9.31;100.00;97023.63;1023652;29;20031;-65
2021/09/30 05:04:17;;;;;;;4.53;1.67;;;;;;;9.24;100.00;97009.63;1024370;28;20035;-65
2021/09/30 05:04:48;;;;;;;5.50;1.30;;;;;;;9.28;100.00;97012.63;1023775;29;20023;-65
2021/09/30 05:05:18;;;;;;;6.00;1.50;;;;;;;9.29;100.00;97019.59;1021247;28;20027;-65
2021/09/30 05:05:49;;;;;;;4.90;1.30;;;;;;;9.26;100.00;97012.84;1023572;29;20062;-65
2021/09/30 05:06:19;;;;;;;4.90;1.30;;;;;;;9.30;100.00;97022.00;1019867;29;20032;-65
2021/09/30 05:06:51;;;;;;;9.10;1.50;;;;;;;9.29;100.00;97015.06;1018082;29;20381;-65
2021/09/30 05:07:22;;;;;;;4.38;1.60;;;;;;;9.30;100.00;97007.88;1025538;28;20039;-65
2021/09/30 05:07:52;;;;;;;5.87;2.13;;;;;;;9.34;100.00;97017.03;1015804;29;20466;-65
2021/09/30 05:08:23;;;;;;;6.57;1.73;;;;;;;9.35;100.00;97014.09;1016434;29;20024;-66
2021/09/30 05:08:58;;;;;;;5.63;1.63;;;;;;;9.34;100.00;97011.69;1019911;29;20023;-65
2021/09/30 05:09:31;;;;;;;5.78;1.73;;;;;;;9.29;100.00;97012.38;1021149;28;20039;-66